Time;durP1;ratioP1;P1;durP2;ratioP2;P2;SDS_P1;SDS_P2;PMS_P1;PMS_P2;Temp;Humidity;BMP_temperature;BMP_pressure;BME280_temperature;BME280_humidity;BME280_pressure;Samples;Min_cycle;Max_cycle;Signal;HPM_P1;HPM_P2
2023/06/28 00:01:10;;;;;;;4.03;1.20;;;22.50;80.70;;;;;;7391436;19;20146;-73
2023/06/28 00:03:56;;;;;;;1.98;1.00;;;22.40;81.50;;;;;;7392789;19;20158;-75
2023/06/28 00:06:22;;;;;;;2.38;1.20;;;22.40;81.40;;;;;;7389107;19;20621;-73
2023/06/28 00:08:48;;;;;;;2.67;1.42;;;22.40;81.40;;;;;;7390364;19;20173;-73
2023/06/28 00:11:13;;;;;;;2.92;1.13;;;22.40;81.50;;;;;;7391264;19;20127;-73
2023/06/28 00:13:39;;;;;;;3.28;1.45;;;22.40;81.80;;;;;;7389740;19;20150;-74
2023/06/28 00:16:05;;;;;;;2.33;1.02;;;22.50;82.10;;;;;;7389865;19;20155;-73
2023/06/28 00:18:32;;;;;;;2.95;1.20;;;22.50;82.00;;;;;;7388262;19;20634;-73
2023/06/28 00:20:58;;;;;;;2.40;1.30;;;22.60;81.60;;;;;;7391308;19;20590;-73
2023/06/28 00:23:24;;;;;;;1.50;1.08;;;22.40;82.10;;;;;;7388601;19;20146;-74
2023/06/28 00:25:50;;;;;;;2.58;1.35;;;22.40;82.80;;;;;;7390437;19;20143;-73
2023/06/28 00:28:16;;;;;;;1.98;1.38;;;22.30;83.80;;;;;;7386703;19;20634;-73
2023/06/28 00:30:41;;;;;;;2.50;1.30;;;22.40;83.80;;;;;;7389750;19;20134;-74
2023/06/28 00:33:07;;;;;;;2.35;1.20;;;22.40;83.50;;;;;;7388815;19;20153;-72
2023/06/28 00:35:33;;;;;;;4.22;1.65;;;22.40;83.10;;;;;;7389326;19;20141;-73
2023/06/28 00:37:58;;;;;;;1.92;1.10;;;22.30;83.50;;;;;;7389187;19;20139;-73
2023/06/28 00:40:24;;;;;;;2.15;1.10;;;22.30;83.60;;;;;;7382569;19;20154;-73
2023/06/28 00:42:50;;;;;;;3.70;1.13;;;22.30;83.50;;;;;;7389829;19;20133;-73
2023/06/28 00:45:15;;;;;;;2.28;1.30;;;22.30;83.50;;;;;;7388701;19;20130;-73
2023/06/28 00:47:43;;;;;;;2.13;1.30;;;22.20;83.70;;;;;;7388154;19;20588;-74
2023/06/28 00:50:09;;;;;;;2.85;1.60;;;22.20;84.10;;;;;;7387854;19;20214;-74
2023/06/28 00:52:36;;;;;;;3.17;1.13;;;22.20;84.10;;;;;;7386007;19;20193;-73
2023/06/28 00:55:02;;;;;;;3.17;1.20;;;22.20;84.30;;;;;;7383484;19;20151;-72
2023/06/28 00:57:27;;;;;;;4.13;1.50;;;22.20;84.30;;;;;;7389117;19;20139;-73
2023/06/28 00:59:55;;;;;;;6.32;1.88;;;22.20;84.00;;;;;;7389819;19;20154;-73
2023/06/28 01:02:21;;;;;;;3.33;1.45;;;22.20;84.50;;;;;;7391199;19;20146;-73
2023/06/28 01:04:47;;;;;;;5.45;3.42;;;22.10;84.80;;;;;;7389667;19;20131;-73
2023/06/28 01:07:13;;;;;;;2.95;1.70;;;22.00;84.90;;;;;;7388434;19;20249;-74
2023/06/28 01:09:40;;;;;;;4.60;1.55;;;22.00;85.20;;;;;;7390033;19;20154;-73
2023/06/28 01:12:07;;;;;;;3.78;1.77;;;21.90;85.60;;;;;;7388995;19;20605;-73
2023/06/28 01:14:33;;;;;;;3.50;2.30;;;21.90;85.90;;;;;;7389132;19;20146;-74
2023/06/28 01:16:58;;;;;;;3.30;2.30;;;21.90;86.20;;;;;;7387598;19;20166;-74
2023/06/28 01:19:31;;;;;;;5.80;3.20;;;21.90;86.30;;;;;;7388987;19;20139;-73
2023/06/28 01:22:01;;;;;;;3.97;2.30;;;21.90;86.70;;;;;;7388141;19;20143;-73
2023/06/28 01:24:27;;;;;;;4.25;2.38;;;21.90;87.00;;;;;;7390448;19;20168;-73
2023/06/28 01:26:54;;;;;;;6.40;1.85;;;21.90;87.50;;;;;;7385437;19;20142;-74
2023/06/28 01:29:21;;;;;;;2.92;1.35;;;21.90;87.30;;;;;;7388427;19;20898;-74
2023/06/28 01:31:50;;;;;;;4.15;1.60;;;21.90;87.70;;;;;;7386441;19;20134;-74
2023/06/28 01:34:16;;;;;;;3.88;1.40;;;21.80;87.60;;;;;;7388103;19;20134;-73
2023/06/28 01:36:42;;;;;;;7.68;1.20;;;21.90;87.50;;;;;;7386699;19;20218;-74
2023/06/28 01:39:09;;;;;;;3.83;1.52;;;21.90;88.00;;;;;;7387906;19;20174;-73
2023/06/28 01:41:36;;;;;;;4.13;1.63;;;21.90;88.50;;;;;;7386968;19;20154;-74
2023/06/28 01:44:02;;;;;;;2.10;1.13;;;21.90;89.70;;;;;;7387700;19;20254;-74
2023/06/28 01:46:30;;;;;;;2.10;1.23;;;21.90;90.20;;;;;;7386617;19;20178;-74
2023/06/28 01:48:56;;;;;;;4.70;1.52;;;21.90;90.60;;;;;;7388080;19;20488;-73
2023/06/28 01:51:22;;;;;;;3.72;1.48;;;21.80;91.00;;;;;;7388691;19;20142;-73
2023/06/28 01:53:48;;;;;;;3.30;1.60;;;21.80;90.90;;;;;;7389197;19;20142;-73
2023/06/28 01:56:14;;;;;;;2.17;1.63;;;21.80;91.80;;;;;;7386911;19;20170;-73
2023/06/28 01:58:39;;;;;;;4.38;1.40;;;21.70;93.30;;;;;;7387993;19;20163;-73
2023/06/28 02:01:07;;;;;;;2.38;1.40;;;21.80;93.40;;;;;;7387837;19;20139;-74
2023/06/28 02:03:35;;;;;;;3.00;1.50;;;21.70;93.30;;;;;;7387818;19;20155;-73
2023/06/28 02:06:02;;;;;;;2.55;1.52;;;21.60;93.50;;;;;;7386370;19;20150;-73
2023/06/28 02:08:27;;;;;;;3.60;1.55;;;21.60;94.40;;;;;;7384219;19;20161;-73
2023/06/28 02:10:53;;;;;;;1.35;0.95;;;21.60;93.90;;;;;;7387503;19;20138;-74
2023/06/28 02:13:19;;;;;;;2.83;1.25;;;21.50;94.20;;;;;;7382808;19;20142;-74
2023/06/28 02:15:45;;;;;;;2.67;1.15;;;21.50;93.50;;;;;;7388119;19;20134;-73
2023/06/28 02:18:11;;;;;;;2.90;1.40;;;21.40;93.90;;;;;;7385615;19;20138;-73
2023/06/28 02:20:37;;;;;;;1.65;1.17;;;21.40;94.00;;;;;;7385807;19;20181;-74
2023/06/28 02:23:03;;;;;;;3.45;1.30;;;21.40;93.80;;;;;;7384788;19;20150;-74
2023/06/28 02:25:29;;;;;;;2.65;1.67;;;21.40;94.00;;;;;;7386465;19;20700;-73
2023/06/28 02:27:55;;;;;;;3.55;1.33;;;21.40;93.60;;;;;;7385570;19;20202;-74
2023/06/28 02:30:21;;;;;;;2.55;1.20;;;21.40;93.70;;;;;;7385835;19;20507;-74
2023/06/28 02:32:46;;;;;;;2.20;1.27;;;21.00;94.30;;;;;;7388168;19;20227;-73
2023/06/28 02:35:12;;;;;;;3.55;1.20;;;21.10;94.60;;;;;;7381065;19;20154;-73
2023/06/28 02:37:38;;;;;;;2.03;1.40;;;21.20;94.40;;;;;;7386829;19;20408;-73
2023/06/28 02:40:04;;;;;;;1.95;1.35;;;21.30;94.40;;;;;;7385964;19;20155;-73
2023/06/28 02:42:30;;;;;;;2.28;1.27;;;21.40;94.30;;;;;;7384190;19;20142;-73
2023/06/28 02:44:56;;;;;;;1.75;1.50;;;21.40;94.30;;;;;;7385356;19;20224;-74
2023/06/28 02:47:21;;;;;;;2.42;1.35;;;21.30;94.40;;;;;;7382970;19;20615;-73
2023/06/28 02:49:47;;;;;;;3.45;1.65;;;21.20;94.70;;;;;;7383644;19;20480;-73
2023/06/28 02:52:13;;;;;;;1.80;1.15;;;21.20;94.70;;;;;;7386024;19;20658;-73
2023/06/28 02:54:38;;;;;;;2.22;1.30;;;21.10;94.80;;;;;;7386325;19;20154;-73
2023/06/28 02:57:08;;;;;;;3.67;1.40;;;21.10;95.00;;;;;;7384410;19;20602;-73
2023/06/28 02:59:34;;;;;;;2.40;1.27;;;21.30;94.70;;;;;;7386007;19;20143;-73
2023/06/28 03:01:59;;;;;;;3.35;1.55;;;21.20;94.80;;;;;;7385722;19;20234;-72
2023/06/28 03:04:28;;;;;;;3.03;1.45;;;21.20;94.80;;;;;;7384223;19;20503;-73
2023/06/28 03:06:54;;;;;;;2.22;1.25;;;21.00;95.10;;;;;;7387696;19;20134;-73
2023/06/28 03:09:20;;;;;;;3.47;1.40;;;21.20;94.60;;;;;;7381985;19;20141;-73
2023/06/28 03:11:46;;;;;;;2.00;1.50;;;21.20;94.50;;;;;;7385152;19;20250;-74
2023/06/28 03:14:12;;;;;;;2.47;1.23;;;21.10;94.60;;;;;;7385526;19;20506;-73
2023/06/28 03:16:38;;;;;;;3.40;1.40;;;21.10;94.80;;;;;;7381976;19;20157;-72
2023/06/28 03:19:08;;;;;;;2.15;1.38;;;21.10;94.70;;;;;;7386835;19;20134;-72
2023/06/28 03:21:34;;;;;;;3.63;1.52;;;21.10;94.70;;;;;;7390140;19;20134;-72
2023/06/28 03:23:59;;;;;;;4.32;1.10;;;21.10;94.50;;;;;;7392855;19;20209;-73
2023/06/28 03:26:25;;;;;;;2.00;1.60;;;21.10;94.70;;;;;;7388923;19;20135;-74
2023/06/28 03:28:53;;;;;;;4.30;1.27;;;21.10;94.70;;;;;;7389965;19;20145;-72
2023/06/28 03:31:19;;;;;;;4.47;1.70;;;21.10;94.70;;;;;;7391200;19;20138;-72
2023/06/28 03:33:45;;;;;;;2.72;1.25;;;21.20;94.40;;;;;;7393499;19;20173;-73
2023/06/28 03:36:10;;;;;;;2.72;1.33;;;21.10;94.30;;;;;;7385630;19;20242;-73
2023/06/28 03:38:36;;;;;;;3.70;1.23;;;21.10;94.40;;;;;;7390658;19;20154;-73
2023/06/28 03:41:02;;;;;;;3.40;1.55;;;21.10;94.50;;;;;;7389065;19;20135;-71
2023/06/28 03:43:27;;;;;;;3.45;1.38;;;21.00;94.80;;;;;;7391646;19;20583;-73
2023/06/28 03:45:53;;;;;;;3.65;1.50;;;21.00;94.80;;;;;;7390570;19;20174;-73
2023/06/28 03:48:19;;;;;;;4.25;1.20;;;21.00;94.90;;;;;;7389569;19;20218;-73
2023/06/28 03:50:45;;;;;;;1.73;1.20;;;21.00;95.10;;;;;;7390677;19;20139;-73
2023/06/28 03:53:11;;;;;;;2.45;1.85;;;21.00;95.50;;;;;;7390057;19;20134;-73
2023/06/28 03:55:37;;;;;;;3.40;1.63;;;21.10;95.80;;;;;;7389651;19;20986;-73
2023/06/28 03:58:03;;;;;;;4.72;1.40;;;20.70;96.40;;;;;;7390170;19;20142;-72
2023/06/28 04:00:28;;;;;;;3.13;1.48;;;20.60;97.00;;;;;;7390530;19;20689;-73
2023/06/28 04:02:54;;;;;;;2.45;1.60;;;20.50;97.50;;;;;;7390385;19;20314;-72
2023/06/28 04:05:20;;;;;;;2.25;1.40;;;20.60;97.60;;;;;;7390986;19;20154;-73
2023/06/28 04:07:54;;;;;;;2.67;1.25;;;20.60;97.80;;;;;;7388342;19;20909;-72
2023/06/28 04:10:21;;;;;;;1.92;1.20;;;20.60;97.80;;;;;;7389789;19;20151;-73
2023/06/28 04:12:47;;;;;;;2.90;1.38;;;20.70;97.90;;;;;;7389667;19;20154;-73
2023/06/28 04:15:13;;;;;;;1.92;1.40;;;20.70;97.80;;;;;;7391705;19;20130;-73
2023/06/28 04:17:38;;;;;;;2.33;1.40;;;20.70;97.90;;;;;;7389712;19;20501;-73
2023/06/28 04:20:08;;;;;;;3.13;1.15;;;20.70;97.80;;;;;;7389696;19;20595;-73
2023/06/28 04:22:34;;;;;;;2.75;1.50;;;20.80;97.80;;;;;;7389588;19;20531;-73
2023/06/28 04:25:00;;;;;;;3.95;1.60;;;20.90;97.50;;;;;;7388402;19;20126;-74
2023/06/28 04:27:26;;;;;;;1.88;1.52;;;20.90;97.50;;;;;;7389408;19;20143;-72
2023/06/28 04:29:52;;;;;;;1.98;1.17;;;20.90;97.30;;;;;;7393067;19;20135;-72
2023/06/28 04:32:28;;;;;;;2.38;1.52;;;21.00;97.30;;;;;;7387796;19;20166;-72
2023/06/28 04:34:55;;;;;;;2.22;1.63;;;21.10;97.30;;;;;;7389488;19;20501;-72
2023/06/28 04:37:21;;;;;;;1.80;1.38;;;21.10;97.20;;;;;;7388785;19;20621;-73
2023/06/28 04:39:47;;;;;;;2.55;1.23;;;21.10;97.30;;;;;;7390906;19;20619;-73
2023/06/28 04:42:15;;;;;;;4.05;1.25;;;20.30;97.90;;;;;;7388722;19;20151;-73
2023/06/28 04:44:48;;;;;;;1.70;1.30;;;20.10;99.00;;;;;;7390788;19;20146;-72
2023/06/28 04:47:17;;;;;;;2.45;1.45;;;20.30;99.30;;;;;;7387167;19;20147;-72
2023/06/28 04:49:48;;;;;;;2.05;1.23;;;20.60;98.80;;;;;;7389360;19;20136;-73
2023/06/28 04:52:21;;;;;;;1.63;1.08;;;20.70;98.70;;;;;;7389115;19;20142;-73
2023/06/28 04:54:48;;;;;;;4.60;1.52;;;20.70;99.00;;;;;;7390600;19;20248;-73
2023/06/28 04:57:15;;;;;;;4.05;1.38;;;20.90;98.80;;;;;;7391209;19;20209;-72
2023/06/28 04:59:42;;;;;;;5.35;1.58;;;21.00;98.50;;;;;;7390938;19;20139;-75
2023/06/28 05:02:09;;;;;;;8.70;1.45;;;21.10;98.30;;;;;;7390271;19;20772;-73
2023/06/28 05:04:37;;;;;;;3.03;1.40;;;21.10;98.20;;;;;;7388958;19;20179;-74
2023/06/28 05:07:04;;;;;;;3.25;1.60;;;21.00;98.00;;;;;;7390779;19;20484;-72
2023/06/28 05:09:34;;;;;;;4.13;1.30;;;21.10;97.80;;;;;;7389472;19;20150;-74
2023/06/28 05:12:01;;;;;;;1.85;1.27;;;21.10;97.80;;;;;;7390813;19;20151;-73
2023/06/28 05:14:28;;;;;;;8.73;1.70;;;21.20;97.60;;;;;;7393637;19;20161;-73
2023/06/28 05:16:55;;;;;;;5.07;1.70;;;21.20;98.00;;;;;;7389230;19;20135;-72
2023/06/28 05:19:22;;;;;;;4.07;1.70;;;21.20;98.10;;;;;;7390424;19;20169;-73
2023/06/28 05:21:48;;;;;;;2.90;1.80;;;21.30;97.70;;;;;;7388520;19;20885;-73
2023/06/28 05:24:16;;;;;;;6.07;2.22;;;21.30;98.00;;;;;;7389688;19;20147;-71
2023/06/28 05:26:42;;;;;;;5.57;1.92;;;21.30;97.70;;;;;;7386741;19;20826;-72
2023/06/28 05:29:08;;;;;;;2.90;1.80;;;21.30;97.50;;;;;;7385508;19;20167;-71
2023/06/28 05:31:37;;;;;;;4.97;2.60;;;21.20;97.80;;;;;;7385650;19;20130;-72
2023/06/28 05:34:03;;;;;;;4.47;1.42;;;21.30;97.80;;;;;;7390107;19;20146;-72
2023/06/28 05:36:29;;;;;;;6.28;1.67;;;21.20;98.00;;;;;;7387816;19;20151;-71
2023/06/28 05:38:56;;;;;;;4.07;1.20;;;21.30;97.90;;;;;;7384687;19;20123;-73
2023/06/28 05:41:22;;;;;;;2.38;1.35;;;21.40;97.60;;;;;;7382894;19;20146;-71
2023/06/28 05:43:48;;;;;;;3.15;1.45;;;21.40;97.60;;;;;;7386985;19;20581;-74
2023/06/28 05:46:14;;;;;;;2.67;1.23;;;21.40;97.50;;;;;;7383783;19;20178;-72
2023/06/28 05:48:39;;;;;;;4.07;1.80;;;21.50;97.20;;;;;;7384257;19;20159;-72
2023/06/28 05:51:09;;;;;;;4.70;1.10;;;21.40;97.30;;;;;;7385269;19;20130;-72
2023/06/28 05:53:37;;;;;;;1.65;1.10;;;21.40;97.30;;;;;;7388762;19;20138;-72
2023/06/28 05:56:03;;;;;;;2.70;1.50;;;21.60;97.60;;;;;;7383834;19;20160;-71
2023/06/28 05:58:29;;;;;;;2.63;1.52;;;21.70;97.00;;;;;;7380898;19;20150;-72
2023/06/28 06:00:55;;;;;;;5.03;1.50;;;21.70;96.90;;;;;;7384295;19;20278;-72
2023/06/28 06:03:23;;;;;;;2.80;1.30;;;21.80;96.60;;;;;;7387879;19;20623;-72
2023/06/28 06:05:49;;;;;;;3.00;1.33;;;21.80;96.50;;;;;;7384252;19;20218;-73
2023/06/28 06:08:15;;;;;;;4.45;1.92;;;21.80;96.30;;;;;;7385316;19;20142;-73
2023/06/28 06:10:41;;;;;;;6.03;2.03;;;21.80;96.40;;;;;;7387115;19;20559;-71
2023/06/28 06:13:09;;;;;;;3.60;1.60;;;21.80;96.80;;;;;;7386901;19;20134;-72
2023/06/28 06:15:35;;;;;;;2.78;1.48;;;21.90;96.00;;;;;;7381524;19;20135;-73
2023/06/28 06:18:00;;;;;;;3.63;1.58;;;22.00;96.00;;;;;;7384071;19;20141;-73
2023/06/28 06:20:26;;;;;;;3.53;1.70;;;22.00;95.40;;;;;;7387534;19;20230;-73
2023/06/28 06:22:52;;;;;;;3.45;1.75;;;22.00;95.40;;;;;;7381073;19;20126;-73
2023/06/28 06:25:18;;;;;;;9.05;6.00;;;22.00;95.50;;;;;;7378351;19;20206;-79
2023/06/28 06:27:43;;;;;;;7.75;2.55;;;22.10;95.50;;;;;;7381273;19;20194;-79
2023/06/28 06:30:13;;;;;;;3.53;2.00;;;22.00;95.30;;;;;;7383294;19;20137;-79
2023/06/28 06:32:39;;;;;;;5.80;1.70;;;22.00;95.10;;;;;;7380839;19;20163;-79
2023/06/28 06:35:07;;;;;;;3.22;1.70;;;22.10;95.40;;;;;;7383830;19;20147;-79
2023/06/28 06:37:33;;;;;;;2.78;1.63;;;22.10;94.90;;;;;;7383585;19;20234;-80
2023/06/28 06:39:58;;;;;;;3.05;1.52;;;22.10;94.90;;;;;;7387899;19;20707;-79
2023/06/28 06:42:24;;;;;;;3.42;1.42;;;22.20;94.40;;;;;;7387180;19;20145;-79
2023/06/28 06:44:50;;;;;;;4.88;1.40;;;22.00;94.60;;;;;;7386273;19;20134;-81
2023/06/28 06:47:16;;;;;;;3.45;1.50;;;21.90;94.80;;;;;;7383088;19;20279;-79
2023/06/28 06:49:41;;;;;;;5.65;1.75;;;22.10;95.00;;;;;;7387158;19;20171;-79
2023/06/28 06:52:07;;;;;;;2.92;1.48;;;22.20;94.70;;;;;;7384612;19;20130;-79
2023/06/28 06:54:33;;;;;;;4.03;1.40;;;22.10;94.80;;;;;;7384998;19;20177;-79
2023/06/28 06:56:59;;;;;;;2.47;1.30;;;22.00;95.10;;;;;;7397145;19;20141;-79
2023/06/28 06:59:26;;;;;;;3.30;1.60;;;22.00;95.40;;;;;;7400607;19;20137;-79
2023/06/28 07:01:53;;;;;;;3.50;1.50;;;22.00;95.20;;;;;;7399970;19;20149;-79
2023/06/28 07:04:21;;;;;;;1.92;1.38;;;22.10;94.50;;;;;;7398803;19;20146;-78
2023/06/28 07:06:47;;;;;;;2.50;1.33;;;22.20;94.20;;;;;;7401335;19;20469;-79
2023/06/28 07:09:14;;;;;;;4.50;1.27;;;22.10;94.50;;;;;;7396644;19;20142;-78
2023/06/28 07:11:41;;;;;;;4.68;1.70;;;22.00;94.60;;;;;;7401221;19;20175;-77
2023/06/28 07:14:07;;;;;;;3.65;1.45;;;21.90;95.30;;;;;;7401181;19;20166;-78
2023/06/28 07:16:32;;;;;;;3.30;1.13;;;22.20;94.80;;;;;;7398917;19;20644;-77
2023/06/28 07:18:58;;;;;;;3.17;1.10;;;22.20;94.50;;;;;;7393345;19;20142;-79
2023/06/28 07:21:24;;;;;;;5.30;1.60;;;22.30;94.00;;;;;;7394859;19;20486;-77
2023/06/28 07:23:50;;;;;;;2.13;1.00;;;22.30;93.70;;;;;;7396727;19;20143;-77
2023/06/28 07:26:17;;;;;;;2.75;1.60;;;22.30;93.60;;;;;;7395204;19;20137;-80
2023/06/28 07:28:43;;;;;;;4.03;1.02;;;22.40;93.70;;;;;;7393630;19;20142;-79
2023/06/28 07:31:09;;;;;;;3.55;2.40;;;22.30;93.00;;;;;;7399213;19;20134;-81
2023/06/28 07:33:34;;;;;;;5.00;1.40;;;22.20;93.10;;;;;;7398699;19;20161;-78
2023/06/28 07:36:00;;;;;;;3.13;1.30;;;22.20;92.80;;;;;;7398070;19;20134;-80
2023/06/28 07:38:27;;;;;;;3.67;1.40;;;22.20;92.70;;;;;;7400232;19;20147;-81
2023/06/28 07:40:53;;;;;;;3.03;1.35;;;22.10;92.20;;;;;;7400555;19;20218;-80
2023/06/28 07:43:19;;;;;;;3.15;1.10;;;22.10;92.10;;;;;;7398492;19;20153;-79
2023/06/28 07:45:45;;;;;;;2.20;1.15;;;22.10;92.30;;;;;;7397851;19;20177;-79
2023/06/28 07:48:11;;;;;;;2.40;1.30;;;22.00;92.00;;;;;;7399049;19;20504;-81
2023/06/28 07:50:41;;;;;;;3.50;1.25;;;22.00;92.70;;;;;;7399113;19;20147;-80
2023/06/28 07:53:07;;;;;;;3.17;1.20;;;22.00;93.10;;;;;;7398367;19;20134;-80
2023/06/28 07:55:33;;;;;;;3.92;1.50;;;21.90;93.00;;;;;;7397757;19;20143;-78
2023/06/28 07:57:58;;;;;;;2.72;1.30;;;21.80;93.20;;;;;;7396429;19;20206;-81
2023/06/28 08:00:25;;;;;;;3.88;1.20;;;21.80;93.70;;;;;;7398342;19;20155;-79
2023/06/28 08:02:54;;;;;;;5.43;1.45;;;22.10;93.20;;;;;;7398883;19;20135;-80
2023/06/28 08:05:20;;;;;;;3.67;1.40;;;22.20;93.00;;;;;;7397744;19;20142;-81
2023/06/28 08:07:46;;;;;;;3.90;1.70;;;22.50;92.40;;;;;;7384577;19;20634;-82
2023/06/28 08:10:12;;;;;;;1.88;1.20;;;22.50;91.70;;;;;;7386377;19;20147;-81
2023/06/28 08:12:40;;;;;;;7.13;1.90;;;22.60;91.80;;;;;;7385960;19;20143;-79
2023/06/28 08:15:07;;;;;;;2.17;1.30;;;22.60;91.50;;;;;;7386883;19;20503;-81
2023/06/28 08:17:33;;;;;;;2.95;1.42;;;22.70;91.30;;;;;;7388610;19;20468;-81
2023/06/28 08:19:59;;;;;;;3.15;1.50;;;22.80;91.50;;;;;;7388626;19;20130;-81
2023/06/28 08:22:25;;;;;;;2.92;1.20;;;22.70;91.30;;;;;;7390854;19;20142;-82
2023/06/28 08:24:50;;;;;;;4.93;1.13;;;22.60;91.60;;;;;;7390368;19;20500;-83
2023/06/28 08:27:16;;;;;;;1.88;1.20;;;22.80;91.30;;;;;;7388550;19;20842;-80
2023/06/28 08:29:42;;;;;;;1.85;1.13;;;22.90;90.90;;;;;;7390172;19;20158;-80
2023/06/28 08:32:09;;;;;;;4.60;1.50;;;23.00;91.10;;;;;;7389858;19;20134;-82
2023/06/28 08:34:35;;;;;;;7.13;1.65;;;23.00;90.60;;;;;;7390820;19;20154;-81
2023/06/28 08:37:01;;;;;;;3.03;1.58;;;23.00;90.50;;;;;;7388903;19;20198;-82
2023/06/28 08:39:27;;;;;;;4.78;1.40;;;22.80;90.70;;;;;;7390452;19;20484;-82
2023/06/28 08:41:53;;;;;;;3.53;1.00;;;22.80;90.90;;;;;;7390484;19;20135;-81
2023/06/28 08:44:22;;;;;;;2.42;1.23;;;22.90;90.70;;;;;;7392440;19;20638;-81
2023/06/28 08:46:49;;;;;;;2.53;1.52;;;23.10;90.70;;;;;;7387252;19;20185;-80
2023/06/28 08:49:16;;;;;;;3.70;1.48;;;23.20;90.50;;;;;;7390344;19;20484;-82
2023/06/28 08:51:42;;;;;;;4.47;1.60;;;23.20;90.40;;;;;;7389074;19;20146;-80
2023/06/28 08:54:11;;;;;;;2.28;1.33;;;23.10;90.40;;;;;;7388468;19;20133;-81
2023/06/28 08:56:51;;;;;;;7.75;4.43;;;23.30;90.40;;;;;;7394626;19;20618;-82
2023/06/28 08:59:17;;;;;;;2.97;1.63;;;23.40;90.10;;;;;;7392283;19;20240;-82
2023/06/28 09:01:44;;;;;;;2.80;1.10;;;23.60;90.00;;;;;;7389539;19;20150;-82
2023/06/28 09:04:10;;;;;;;2.10;1.20;;;23.80;88.90;;;;;;7387966;19;20137;-82
2023/06/28 09:06:36;;;;;;;3.45;1.23;;;23.90;89.10;;;;;;7389680;19;20182;-82
2023/06/28 09:09:12;;;;;;;7.90;1.60;;;23.90;89.00;;;;;;7387608;19;20135;-80
2023/06/28 09:11:38;;;;;;;2.97;1.50;;;24.10;88.20;;;;;;7390504;19;20579;-82
2023/06/28 09:14:04;;;;;;;5.05;2.03;;;24.00;88.40;;;;;;7389498;19;20245;-81
2023/06/28 09:16:30;;;;;;;3.30;1.38;;;24.20;87.40;;;;;;7388088;19;20135;-84
2023/06/28 09:18:56;;;;;;;3.50;1.42;;;24.30;86.80;;;;;;7391091;19;20131;-85
2023/06/28 09:21:27;;;;;;;2.45;1.23;;;24.30;87.40;;;;;;7387571;19;20142;-82
2023/06/28 09:23:54;;;;;;;4.03;1.20;;;24.30;86.80;;;;;;7389622;19;20568;-82
2023/06/28 09:26:43;;;;;;;2.63;1.45;;;23.40;89.00;;;;;;7387940;19;20694;-81
2023/06/28 09:29:12;;;;;;;4.70;1.70;;;23.70;88.30;;;;;;7386441;19;20583;-81
2023/06/28 09:31:44;;;;;;;3.28;1.25;;;23.80;87.90;;;;;;7388027;19;20130;-80
2023/06/28 09:34:10;;;;;;;2.38;1.27;;;24.00;87.30;;;;;;7385752;19;20173;-80
2023/06/28 09:36:39;;;;;;;4.35;1.48;;;23.20;88.90;;;;;;7391346;19;20431;-80
2023/06/28 09:39:13;;;;;;;1.60;1.20;;;23.40;89.10;;;;;;7388359;19;20559;-80
2023/06/28 09:41:40;;;;;;;8.70;2.58;;;23.60;88.00;;;;;;7387045;19;20170;-82
2023/06/28 09:44:10;;;;;;;12.00;3.30;;;23.90;87.30;;;;;;7386978;19;20137;-80
2023/06/28 09:46:46;;;;;;;4.15;1.75;;;24.00;86.70;;;;;;7385849;19;20150;-81
2023/06/28 09:49:22;;;;;;;2.25;1.13;;;23.90;87.80;;;;;;7385347;19;20142;-80
2023/06/28 09:52:08;;;;;;;2.63;1.27;;;23.90;87.90;;;;;;7386419;19;20453;-78
2023/06/28 09:54:38;;;;;;;2.90;1.20;;;24.20;86.70;;;;;;7385666;19;20146;-84
2023/06/28 09:57:07;;;;;;;3.33;1.60;;;24.30;86.10;;;;;;7386936;19;20173;-80
2023/06/28 09:59:36;;;;;;;4.32;1.58;;;24.50;86.20;;;;;;7390872;19;20138;-83
2023/06/28 10:02:09;;;;;;;3.92;1.50;;;24.70;85.50;;;;;;7385762;19;20135;-79
2023/06/28 10:04:38;;;;;;;7.75;2.10;;;24.60;85.50;;;;;;7388034;19;20135;-82
2023/06/28 10:07:06;;;;;;;2.35;1.30;;;24.60;85.50;;;;;;7385956;19;20142;-80
2023/06/28 10:09:37;;;;;;;1.92;1.15;;;24.70;85.20;;;;;;7384620;19;20135;-79
2023/06/28 10:12:16;;;;;;;3.40;1.40;;;24.70;86.40;;;;;;7386259;19;20135;-77
2023/06/28 10:14:53;;;;;;;2.78;1.27;;;24.90;85.40;;;;;;7388024;19;20146;-79
2023/06/28 10:17:20;;;;;;;3.75;1.60;;;25.00;84.50;;;;;;7391820;19;20150;-76
2023/06/28 10:19:47;;;;;;;2.60;1.48;;;24.60;85.30;;;;;;7385313;19;20138;-80
2023/06/28 10:22:15;;;;;;;3.60;1.55;;;24.80;86.00;;;;;;7385793;19;20143;-79
2023/06/28 10:24:42;;;;;;;2.35;1.20;;;25.10;84.60;;;;;;7389746;19;20545;-80
2023/06/28 10:27:09;;;;;;;10.52;6.95;;;25.30;83.10;;;;;;7382689;19;20243;-80
2023/06/28 10:29:35;;;;;;;9.65;6.55;;;25.40;84.10;;;;;;7381946;19;20147;-81
2023/06/28 10:32:02;;;;;;;2.42;1.50;;;25.50;83.40;;;;;;7385773;19;20572;-81
2023/06/28 10:34:29;;;;;;;3.60;1.35;;;25.60;82.90;;;;;;7386304;19;20139;-80
2023/06/28 10:36:56;;;;;;;4.60;1.75;;;25.70;83.30;;;;;;7388090;19;20134;-81
2023/06/28 10:39:22;;;;;;;22.95;16.80;;;25.80;82.90;;;;;;7383498;19;20142;-80
2023/06/28 10:41:55;;;;;;;5.05;2.05;;;25.70;82.80;;;;;;7387187;19;20142;-80
2023/06/28 10:44:21;;;;;;;2.83;1.27;;;25.90;82.00;;;;;;7384897;19;20145;-80
2023/06/28 10:47:07;;;;;;;4.03;1.38;;;25.90;80.60;;;;;;7380676;19;20150;-83
2023/06/28 10:49:36;;;;;;;3.92;1.13;;;25.50;80.50;;;;;;7382436;19;20170;-81
2023/06/28 10:52:01;;;;;;;2.15;1.20;;;25.10;82.50;;;;;;7378705;19;20134;-81
2023/06/28 10:54:30;;;;;;;3.65;2.80;;;25.30;81.80;;;;;;7387453;19;20130;-81
2023/06/28 10:57:07;;;;;;;2.38;1.85;;;25.40;81.30;;;;;;7384345;19;20198;-85
2023/06/28 10:59:45;;;;;;;2.95;1.52;;;25.30;81.50;;;;;;7385419;19;20583;-82
2023/06/28 11:02:11;;;;;;;2.95;1.55;;;25.00;82.00;;;;;;7389156;19;20166;-85
2023/06/28 11:04:52;;;;;;;3.10;1.60;;;24.90;82.50;;;;;;7381157;19;21274;-82
2023/06/28 11:07:23;;;;;;;2.75;1.35;;;24.70;82.50;;;;;;7382941;19;20141;-84
2023/06/28 11:10:08;;;;;;;3.22;1.90;;;24.50;83.00;;;;;;7382888;19;20166;-82
2023/06/28 11:12:34;;;;;;;6.10;2.08;;;24.50;83.40;;;;;;7383906;19;20267;-80
2023/06/28 11:15:08;;;;;;;3.50;1.30;;;24.50;83.20;;;;;;7383933;19;20501;-82
2023/06/28 11:17:33;;;;;;;5.80;2.42;;;24.60;82.90;;;;;;7378677;19;20508;-80
2023/06/28 11:20:12;;;;;;;1.75;1.05;;;24.60;82.90;;;;;;7379425;19;20150;-80
2023/06/28 11:22:51;;;;;;;2.67;2.00;;;24.60;83.30;;;;;;7384784;19;20149;-79
2023/06/28 11:25:17;;;;;;;2.95;1.63;;;24.60;83.10;;;;;;7380666;19;20658;-81
2023/06/28 11:27:42;;;;;;;3.00;1.77;;;24.60;82.80;;;;;;7376719;19;20142;-81
2023/06/28 11:30:09;;;;;;;2.70;1.20;;;24.60;83.40;;;;;;7378689;19;20131;-80
2023/06/28 11:32:36;;;;;;;2.38;1.17;;;24.70;82.80;;;;;;7381527;19;20146;-78
2023/06/28 11:35:05;;;;;;;5.10;1.83;;;24.80;82.30;;;;;;7385002;19;20150;-77
2023/06/28 11:37:31;;;;;;;5.13;1.60;;;24.70;83.10;;;;;;7383468;19;20340;-80
2023/06/28 11:40:00;;;;;;;2.83;1.30;;;25.00;82.70;;;;;;7382766;19;20500;-82
2023/06/28 11:42:26;;;;;;;2.92;1.33;;;25.10;82.40;;;;;;7384507;19;20177;-78
2023/06/28 11:44:52;;;;;;;2.28;1.15;;;25.40;81.50;;;;;;7383761;19;20973;-78
2023/06/28 11:47:22;;;;;;;2.40;1.30;;;25.50;80.80;;;;;;7379926;19;20151;-78
2023/06/28 11:49:48;;;;;;;3.10;1.35;;;25.50;80.70;;;;;;7391293;19;20179;-78
2023/06/28 11:52:18;;;;;;;3.50;2.50;;;25.30;81.70;;;;;;7390204;19;21037;-77
2023/06/28 11:54:44;;;;;;;3.95;2.22;;;25.20;81.20;;;;;;7389970;19;20199;-79
2023/06/28 11:57:11;;;;;;;3.95;1.60;;;25.10;81.30;;;;;;7391858;19;20179;-80
2023/06/28 11:59:44;;;;;;;2.83;1.38;;;24.90;81.60;;;;;;7398830;19;20465;-79
2023/06/28 12:02:10;;;;;;;1.67;1.23;;;24.80;82.80;;;;;;7394190;19;20158;-82
2023/06/28 12:04:37;;;;;;;2.57;1.20;;;24.90;83.00;;;;;;7391528;19;20416;-80
2023/06/28 12:07:07;;;;;;;3.92;1.02;;;25.20;82.60;;;;;;7392272;19;20195;-76
2023/06/28 12:09:35;;;;;;;1.80;0.95;;;25.10;81.40;;;;;;7393507;19;20143;-79
2023/06/28 12:12:04;;;;;;;3.05;1.48;;;25.30;81.90;;;;;;7392248;19;20150;-78
2023/06/28 12:14:46;;;;;;;2.65;1.08;;;25.70;80.40;;;;;;7392208;19;20135;-79
2023/06/28 12:17:12;;;;;;;3.88;1.23;;;25.50;80.10;;;;;;7390310;19;20209;-77
2023/06/28 12:19:40;;;;;;;2.45;1.77;;;25.40;81.10;;;;;;7392519;19;20164;-76
2023/06/28 12:22:07;;;;;;;2.13;1.20;;;25.50;80.50;;;;;;7391182;19;20485;-78
2023/06/28 12:24:34;;;;;;;2.53;1.75;;;25.50;80.50;;;;;;7394948;19;20168;-78
2023/06/28 12:27:08;;;;;;;3.80;2.45;;;25.60;81.10;;;;;;7393178;19;20139;-80
2023/06/28 12:29:36;;;;;;;3.53;1.50;;;25.70;80.80;;;;;;7390894;19;20145;-79
2023/06/28 12:32:06;;;;;;;3.50;1.42;;;25.80;80.00;;;;;;7395983;19;20630;-83
2023/06/28 12:34:34;;;;;;;4.20;1.90;;;25.70;80.40;;;;;;7388953;19;20157;-80
2023/06/28 12:37:07;;;;;;;4.57;1.63;;;25.70;80.80;;;;;;7394613;19;20131;-80
2023/06/28 12:39:40;;;;;;;1.65;1.25;;;25.50;80.30;;;;;;7388940;19;20139;-80
2023/06/28 12:42:16;;;;;;;1.27;1.17;;;25.70;80.10;;;;;;7389087;19;20244;-80
2023/06/28 12:44:49;;;;;;;2.28;1.10;;;25.70;79.80;;;;;;7388795;19;20146;-78
2023/06/28 12:47:20;;;;;;;5.25;1.70;;;25.60;79.70;;;;;;7384053;19;20485;-77